This is the latest recevied weather packets stored in our database for station/object KC5L-7. If no packets are shown the sender has not sent any weather packets the latest 10 day(s).
| Time | Temp. | Humidity | Pressure | Rain* | Wind** | Luminosity | Snow |
|---|---|---|---|---|---|---|---|
| 1777944081 | 25.56° C | 58% | 1006.9 hPa | 0 mm | - | - | - |
| 1777943480 | -17.78° C | 100% | 0 hPa | 0 mm | - | - | - |
| 1777941380 | 26.67° C | 55% | 1006.5 hPa | 0 mm | - | - | - |
| 1777940780 | 26.67° C | 55% | 1006.4 hPa | 0 mm | - | - | - |
| 1777940180 | 26.67° C | 55% | 1006.6 hPa | 0 mm | - | - | - |
| 1777939580 | 26.67° C | 55% | 1006.6 hPa | 0 mm | - | - | - |
| 1777938981 | 26.67° C | 53% | 1006.7 hPa | 0 mm | - | - | - |
| 1777938380 | 26.67° C | 53% | 1006.9 hPa | 0 mm | - | - | - |
| 1777937781 | 27.22° C | 55% | 1006.9 hPa | 0 mm | - | - | - |
| 1777937181 | 26.67° C | 55% | 1007 hPa | 0 mm | - | - | - |
| 1777935980 | 27.22° C | 54% | 1007.3 hPa | 0 mm | - | - | - |
| 1777934781 | 26.67° C | 53% | 1007.8 hPa | 0 mm | - | - | - |
| 1777934180 | 26.67° C | 55% | 1007.7 hPa | 0 mm | - | - | - |
| 1777933580 | 26.67° C | 53% | 1007.8 hPa | 0 mm | - | - | - |
| 1777932981 | 26.67° C | 54% | 1007.8 hPa | 0 mm | - | - | - |
| 1777932380 | 27.22° C | 54% | 1007.8 hPa | 0 mm | - | - | - |
| 1777931780 | 27.22° C | 55% | 1007.7 hPa | 0 mm | - | - | - |
| 1777931180 | 26.67° C | 55% | 1007.8 hPa | 0 mm | - | - | - |
| 1777930580 | 26.67° C | 56% | 1008 hPa | 0 mm | - | - | - |
| 1777929981 | 26.11° C | 56% | 1008.2 hPa | 0 mm | - | - | - |
| 1777929381 | 26.11° C | 56% | 1008.5 hPa | 0 mm | - | - | - |
| 1777928781 | 26.11° C | 56% | 1008.8 hPa | 0 mm | - | - | - |
| 1777928481 | 26.11° C | 55% | 1008.9 hPa | 0 mm | - | - | - |
| 1777927881 | 26.11° C | 56% | 1009 hPa | 0 mm | - | - | - |
| 1777927280 | 26.11° C | 56% | 1009.2 hPa | 0 mm | - | - | - |
* Rain latest hour (hover to see other rain measurements)
** Current wind speed in m/s (hover to see current wind gust speed)